Time;durP1;ratioP1;P1;durP2;ratioP2;P2;SDS_P1;SDS_P2;PMS_P1;PMS_P2;Temp;Humidity;BMP_temperature;BMP_pressure;BME280_temperature;BME280_humidity;BME280_pressure;Samples;Min_cycle;Max_cycle;Signal;HPM_P1;HPM_P2
2022/03/31 00:01:34;;;;;;;20.02;7.30;;;;;;;16.43;46.78;97004.59;4449257;32;20436;-87
2022/03/31 00:03:59;;;;;;;15.95;6.22;;;;;;;16.43;46.61;97001.12;4448646;32;20154;-87
2022/03/31 00:06:25;;;;;;;18.80;6.43;;;;;;;16.36;46.35;96989.47;4447482;32;20128;-88
2022/03/31 00:08:50;;;;;;;19.20;6.45;;;;;;;16.35;45.93;96993.16;4447412;32;20089;-86
2022/03/31 00:11:17;;;;;;;17.15;6.30;;;;;;;16.37;45.77;96997.28;4433651;32;20415;-86
2022/03/31 00:13:43;;;;;;;17.10;6.30;;;;;;;16.38;45.60;96995.47;4435563;32;20084;-86
2022/03/31 00:16:08;;;;;;;17.95;5.85;;;;;;;16.36;45.49;96984.16;4448234;32;20175;-86
2022/03/31 00:18:33;;;;;;;17.80;5.95;;;;;;;16.31;45.46;96985.50;4452130;32;20127;-85
2022/03/31 00:20:59;;;;;;;18.30;6.37;;;;;;;16.36;45.12;96984.16;4451884;32;20113;-85
2022/03/31 00:23:25;;;;;;;17.15;6.30;;;;;;;16.36;44.96;96994.78;4448901;32;20116;-86
2022/03/31 00:25:51;;;;;;;19.45;6.87;;;;;;;16.36;44.87;96993.00;4434531;32;20384;-87
2022/03/31 00:28:16;;;;;;;22.13;6.47;;;;;;;16.38;44.81;96987.47;4448365;32;20147;-85
2022/03/31 00:30:42;;;;;;;17.00;6.15;;;;;;;16.40;44.72;96986.34;4451685;32;20117;-86
2022/03/31 00:33:08;;;;;;;17.10;6.35;;;;;;;16.40;44.74;96985.50;4435943;32;20104;-85
2022/03/31 00:35:34;;;;;;;19.35;5.97;;;;;;;16.29;44.93;96984.00;4434791;32;20097;-85
2022/03/31 00:37:59;;;;;;;21.48;7.05;;;;;;;16.30;45.01;96975.87;4422078;32;20136;-87
2022/03/31 00:40:25;;;;;;;17.65;7.28;;;;;;;16.30;45.14;96967.03;4433238;32;20111;-87
2022/03/31 00:42:53;;;;;;;20.45;7.22;;;;;;;16.20;45.36;96975.16;4447075;32;20473;-87
2022/03/31 00:45:20;;;;;;;;;;;;;;;16.13;45.54;96974.19;4421006;32;20153;-88
2022/03/31 00:47:46;;;;;;;19.10;7.72;;;;;;;16.26;45.38;96965.72;4433599;32;20049;-87
2022/03/31 00:50:13;;;;;;;20.60;8.15;;;;;;;16.28;45.32;96969.03;4452229;32;20145;-88
2022/03/31 00:52:39;;;;;;;22.45;8.13;;;;;;;16.23;45.32;96966.06;4447322;32;20112;-88
2022/03/31 00:55:06;;;;;;;20.23;8.27;;;;;;;16.27;45.28;96965.56;4435601;32;20097;-89
2022/03/31 00:57:32;;;;;;;21.98;8.20;;;;;;;16.27;45.28;96954.94;4447488;32;20122;-88
2022/03/31 00:59:58;;;;;;;21.17;7.95;;;;;;;16.26;45.35;96952.44;4435665;32;20386;-87
2022/03/31 01:02:27;;;;;;;20.85;8.20;;;;;;;16.26;45.37;96947.13;4434025;32;20179;-89
2022/03/31 01:04:53;;;;;;;18.37;6.87;;;;;;;16.22;45.46;96943.97;4436386;32;20159;-86
2022/03/31 01:07:18;;;;;;;20.37;8.25;;;;;;;16.26;45.42;96936.50;4435857;32;20101;-85
2022/03/31 01:09:44;;;;;;;18.10;7.82;;;;;;;16.21;45.55;96941.50;4433066;32;20094;-85
2022/03/31 01:12:09;;;;;;;18.52;7.47;;;;;;;16.10;45.88;96932.00;4450976;32;20088;-86
2022/03/31 01:14:35;;;;;;;21.98;8.48;;;;;;;16.21;45.59;96930.88;4447128;32;20092;-86
2022/03/31 01:17:00;;;;;;;17.80;7.43;;;;;;;16.26;45.43;96931.19;4447277;32;20108;-85
2022/03/31 01:19:26;;;;;;;19.35;8.10;;;;;;;16.29;45.20;96920.22;4447577;32;20093;-85
2022/03/31 01:21:51;;;;;;;20.50;7.45;;;;;;;16.27;45.31;96928.38;4447001;32;20144;-85
2022/03/31 01:24:18;;;;;;;20.40;7.97;;;;;;;16.29;45.20;96922.88;4435388;32;20077;-84
2022/03/31 01:26:43;;;;;;;17.70;7.70;;;;;;;16.27;45.17;96920.38;4454354;32;20084;-85
2022/03/31 01:29:10;;;;;;;23.15;8.25;;;;;;;16.21;45.32;96920.22;4452940;32;20162;-84
2022/03/31 01:31:38;;;;;;;21.87;8.20;;;;;;;16.22;45.27;96919.22;4438956;32;20111;-86
2022/03/31 01:34:07;;;;;;;21.60;8.60;;;;;;;16.18;45.42;96916.06;4434488;32;20119;-86
2022/03/31 01:36:34;;;;;;;19.70;8.50;;;;;;;16.15;45.48;96915.56;4432894;32;20126;-86
2022/03/31 01:38:59;;;;;;;24.90;8.82;;;;;;;16.20;45.43;96906.09;4436270;32;20522;-85
2022/03/31 01:41:25;;;;;;;19.52;8.90;;;;;;;16.22;45.33;96911.25;4451532;32;20096;-85
2022/03/31 01:43:51;;;;;;;22.13;8.43;;;;;;;16.16;45.36;96910.09;4441131;32;20166;-85
2022/03/31 01:46:17;;;;;;;21.87;8.32;;;;;;;16.16;45.29;96904.78;4455843;32;20158;-85
2022/03/31 01:48:42;;;;;;;20.65;8.38;;;;;;;16.09;45.46;96909.94;4455582;32;20065;-86
2022/03/31 01:51:08;;;;;;;20.37;8.15;;;;;;;16.12;45.22;96906.09;4441537;32;20076;-87
2022/03/31 01:53:38;;;;;;;21.02;8.32;;;;;;;16.19;45.04;96907.13;4454427;32;20104;-86
2022/03/31 01:56:04;;;;;;;23.92;8.85;;;;;;;16.16;44.98;96909.25;4441444;32;20110;-86
2022/03/31 01:58:29;;;;;;;18.40;7.85;;;;;;;16.05;45.12;96908.59;4440905;32;20112;-86
2022/03/31 02:00:55;;;;;;;23.87;9.13;;;;;;;16.16;44.93;96907.44;4455517;32;20073;-86
2022/03/31 02:03:22;;;;;;;24.52;8.55;;;;;;;16.23;44.92;96907.63;4441189;32;20165;-85
2022/03/31 02:05:48;;;;;;;24.50;9.57;;;;;;;16.20;44.95;96906.09;4455529;32;20151;-84
2022/03/31 02:08:13;;;;;;;32.08;10.90;;;;;;;16.28;44.87;96902.62;4455319;32;20401;-84
2022/03/31 02:10:39;;;;;;;22.60;10.40;;;;;;;16.18;45.09;96905.44;4440561;32;20085;-84
2022/03/31 02:13:07;;;;;;;26.15;10.73;;;;;;;16.18;45.13;96894.81;4441084;32;20109;-85
2022/03/31 02:15:32;;;;;;;27.13;11.25;;;;;;;16.15;45.28;96886.34;4429915;32;20492;-84
2022/03/31 02:17:59;;;;;;;25.83;10.95;;;;;;;16.17;45.32;96879.88;4439859;32;20159;-84
2022/03/31 02:20:26;;;;;;;25.27;10.80;;;;;;;16.18;45.41;96873.56;4439793;32;20140;-85
2022/03/31 02:22:52;;;;;;;;;;;;;;;16.11;45.59;96875.25;4439966;32;20444;-84
2022/03/31 02:25:17;;;;;;;26.45;10.13;;;;;;;16.16;45.54;96880.88;4439539;32;19984;-84
2022/03/31 02:27:42;;;;;;;25.83;9.98;;;;;;;16.14;45.47;96877.53;4439131;32;20162;-85
2022/03/31 02:30:09;;;;;;;23.02;10.50;;;;;;;16.15;45.29;96879.22;4439493;32;20125;-83
2022/03/31 02:32:35;;;;;;;25.35;11.70;;;;;;;16.07;45.43;96880.03;4437612;32;20124;-84
2022/03/31 02:35:00;;;;;;;24.77;12.20;;;;;;;16.16;45.07;96880.88;4440830;32;20584;-85
2022/03/31 02:37:26;;;;;;;27.83;12.63;;;;;;;16.21;44.75;96877.72;4454930;32;20093;-84
2022/03/31 02:39:51;;;;;;;26.62;12.23;;;;;;;16.01;45.11;96879.84;4440979;32;20460;-85
2022/03/31 02:42:17;;;;;;;29.80;11.75;;;;;;;16.04;44.92;96875.06;4440834;32;20117;-84
2022/03/31 02:44:44;;;;;;;25.73;11.93;;;;;;;16.08;44.92;96871.06;4455035;32;20097;-85
2022/03/31 02:47:09;;;;;;;28.50;11.70;;;;;;;16.08;44.87;96872.91;4440787;32;20619;-85
2022/03/31 02:49:35;;;;;;;25.83;11.30;;;;;;;16.05;44.76;96870.56;4440619;32;20085;-86
2022/03/31 02:52:01;;;;;;;24.98;11.45;;;;;;;16.07;44.74;96866.75;4440659;32;20163;-85
2022/03/31 02:57:11;;;;;;;23.45;10.02;;;;;;;15.96;45.07;96853.81;4442625;32;20177;-86
2022/03/31 02:59:38;;;;;;;23.55;9.07;;;;;;;15.87;45.39;96855.59;4454634;32;20360;-86
2022/03/31 03:02:04;;;;;;;19.45;8.88;;;;;;;15.98;45.14;96849.16;4454573;32;20149;-86
2022/03/31 03:04:29;;;;;;;22.17;8.90;;;;;;;16.01;45.16;96848.84;4453681;32;20089;-85
2022/03/31 03:06:55;;;;;;;17.77;8.57;;;;;;;16.01;45.16;96846.19;4454496;32;20077;-83
2022/03/31 03:09:20;;;;;;;19.85;8.20;;;;;;;15.99;45.20;96855.28;4440259;32;20085;-84
2022/03/31 03:11:46;;;;;;;19.58;8.85;;;;;;;15.94;45.34;96842.53;4454388;32;20139;-84
2022/03/31 03:14:13;;;;;;;18.10;8.82;;;;;;;15.98;45.32;96851.00;4453807;32;20123;-84
2022/03/31 03:16:42;;;;;;;18.37;9.32;;;;;;;15.87;45.44;96846.81;4440522;32;20135;-83
2022/03/31 03:19:08;;;;;;;22.52;8.68;;;;;;;15.77;45.54;96844.31;4454196;32;20115;-84
2022/03/31 03:21:34;;;;;;;19.23;8.80;;;;;;;15.89;45.39;96843.00;4440203;32;20108;-83
2022/03/31 03:24:01;;;;;;;19.15;9.25;;;;;;;15.93;45.29;96846.16;4456195;32;20124;-83
2022/03/31 03:26:27;;;;;;;21.70;9.18;;;;;;;15.89;45.47;96840.34;4442345;32;20101;-83
2022/03/31 03:28:52;;;;;;;20.62;9.32;;;;;;;15.95;45.54;96824.75;4456249;32;20111;-82
2022/03/31 03:31:18;;;;;;;20.95;9.60;;;;;;;15.87;45.73;96830.87;4456789;32;20143;-82
2022/03/31 03:33:43;;;;;;;21.62;9.98;;;;;;;15.85;45.90;96839.00;4456387;32;20069;-82
2022/03/31 03:36:11;;;;;;;19.55;9.57;;;;;;;15.92;45.89;96834.72;4456732;32;20085;-83
2022/03/31 03:38:37;;;;;;;24.02;10.38;;;;;;;15.94;45.90;96826.59;4442417;32;20115;-83
2022/03/31 03:41:02;;;;;;;22.25;10.75;;;;;;;15.92;45.95;96840.03;4442663;32;20105;-83
2022/03/31 03:43:28;;;;;;;19.48;10.27;;;;;;;15.79;46.42;96829.06;4442763;32;20128;-84
2022/03/31 03:45:54;;;;;;;22.02;9.93;;;;;;;15.85;46.31;96825.75;4456755;32;20330;-83
2022/03/31 03:48:21;;;;;;;20.95;9.60;;;;;;;15.81;46.47;96832.38;4442621;32;20151;-83
2022/03/31 03:50:47;;;;;;;23.17;10.27;;;;;;;15.91;46.31;96819.75;4456796;32;20101;-83
2022/03/31 03:53:12;;;;;;;19.65;10.13;;;;;;;15.82;46.47;96818.13;4456324;32;20105;-83
2022/03/31 03:55:38;;;;;;;21.85;9.98;;;;;;;15.84;46.49;96820.59;4456688;32;20134;-83
2022/03/31 03:58:03;;;;;;;19.77;10.13;;;;;;;15.86;46.50;96816.78;4456531;32;20352;-83
2022/03/31 04:00:29;;;;;;;20.05;10.70;;;;;;;15.88;46.52;96806.84;4456486;32;20093;-83
2022/03/31 04:02:55;;;;;;;21.48;10.00;;;;;;;15.88;46.53;96809.50;4442454;32;20359;-83
2022/03/31 04:05:21;;;;;;;20.58;10.02;;;;;;;15.88;46.56;96803.34;4456389;32;20091;-83
2022/03/31 04:07:47;;;;;;;21.20;10.05;;;;;;;15.88;46.56;96806.84;4456262;32;20458;-82
2022/03/31 04:10:12;;;;;;;23.83;10.73;;;;;;;15.93;46.52;96803.66;4442325;32;20106;-83
2022/03/31 04:12:39;;;;;;;23.52;10.32;;;;;;;15.94;46.49;96797.38;4441870;32;20143;-82
2022/03/31 04:15:06;;;;;;;18.33;9.80;;;;;;;15.93;46.51;96803.66;4441930;32;20148;-83
2022/03/31 04:17:35;;;;;;;18.48;10.77;;;;;;;15.92;46.49;96804.69;4442156;32;20080;-83
2022/03/31 04:20:02;;;;;;;21.95;10.20;;;;;;;15.95;46.50;96808.81;4442082;32;20456;-83
2022/03/31 04:22:27;;;;;;;24.35;9.93;;;;;;;15.94;46.59;96804.53;4442029;32;20135;-85
2022/03/31 04:24:53;;;;;;;21.15;10.20;;;;;;;15.88;46.73;96803.34;4456010;32;20416;-85
2022/03/31 04:27:18;;;;;;;22.55;9.90;;;;;;;15.87;46.78;96799.84;4428702;32;20173;-84
2022/03/31 04:29:44;;;;;;;24.77;10.43;;;;;;;15.86;46.89;96792.06;4455946;32;20124;-85
2022/03/31 04:32:10;;;;;;;19.92;9.82;;;;;;;15.86;46.91;96805.34;4455793;32;20424;-85
2022/03/31 04:34:35;;;;;;;23.02;10.35;;;;;;;15.87;46.94;96807.81;4441943;32;20089;-83
2022/03/31 04:37:01;;;;;;;23.92;11.15;;;;;;;15.91;46.91;96810.97;4456323;32;20121;-84
2022/03/31 04:39:27;;;;;;;23.75;11.00;;;;;;;15.93;46.80;96803.66;4429018;32;20132;-83
2022/03/31 04:41:52;;;;;;;22.10;10.98;;;;;;;15.91;46.92;96803.81;4440381;32;20441;-82
2022/03/31 04:44:19;;;;;;;21.95;10.80;;;;;;;15.83;47.03;96800.34;4428570;32;20440;-82
2022/03/31 04:46:45;;;;;;;21.87;10.68;;;;;;;15.84;46.96;96797.53;4439206;32;20471;-83
2022/03/31 04:49:10;;;;;;;23.65;11.43;;;;;;;15.87;46.92;96793.72;4411648;32;20118;-82
2022/03/31 04:51:36;;;;;;;24.40;11.20;;;;;;;15.86;46.94;96790.25;4454323;32;20089;-83
2022/03/31 04:54:01;;;;;;;26.48;11.90;;;;;;;15.88;46.87;96790.91;4454172;32;20101;-83
2022/03/31 04:56:27;;;;;;;24.12;11.32;;;;;;;15.87;46.91;96791.87;4440306;32;20119;-83
2022/03/31 04:58:52;;;;;;;23.45;10.95;;;;;;;15.95;46.77;96790.22;4439985;32;20105;-85
2022/03/31 05:01:18;;;;;;;21.87;10.70;;;;;;;16.00;46.50;96785.25;4454259;32;20127;-84
2022/03/31 05:03:43;;;;;;;20.58;9.95;;;;;;;16.01;46.53;96785.09;4454164;32;20097;-83
2022/03/31 05:06:09;;;;;;;24.52;10.63;;;;;;;15.99;46.64;96792.37;4454216;32;20143;-84
2022/03/31 05:08:35;;;;;;;21.70;10.00;;;;;;;16.00;46.98;96788.75;4441702;32;20412;-84
2022/03/31 05:11:01;;;;;;;23.15;10.77;;;;;;;16.03;47.13;96791.06;4439220;32;20436;-83
2022/03/31 05:13:26;;;;;;;21.02;10.68;;;;;;;15.96;47.56;96792.72;4454097;32;20368;-82
2022/03/31 05:15:52;;;;;;;22.70;10.57;;;;;;;15.98;47.67;96784.59;4454196;32;20103;-82
2022/03/31 05:18:18;;;;;;;20.62;11.35;;;;;;;16.00;47.70;96783.44;4439909;32;20131;-82
2022/03/31 05:20:43;;;;;;;22.87;10.85;;;;;;;15.98;47.89;96787.25;4454480;32;20093;-82
2022/03/31 05:23:12;;;;;;;23.75;12.63;;;;;;;15.97;48.20;96782.94;4439736;32;20177;-82
2022/03/31 05:25:38;;;;;;;22.13;11.38;;;;;;;16.01;48.22;96785.09;4453851;32;20092;-83
2022/03/31 05:28:04;;;;;;;21.30;11.12;;;;;;;15.93;48.40;96787.75;4453332;32;20078;-84
2022/03/31 05:30:29;;;;;;;25.48;11.98;;;;;;;15.98;48.40;96788.06;4439741;32;20092;-84
2022/03/31 05:32:55;;;;;;;23.80;10.82;;;;;;;16.06;48.11;96785.41;4453909;32;20093;-84
2022/03/31 05:35:21;;;;;;;22.58;10.43;;;;;;;16.06;48.00;96793.38;4454271;32;20338;-84
2022/03/31 05:37:47;;;;;;;26.80;10.70;;;;;;;16.08;47.97;96785.25;4440064;32;20109;-84
2022/03/31 05:40:14;;;;;;;20.77;10.45;;;;;;;16.09;48.20;96790.41;4439676;32;20093;-82
2022/03/31 05:42:40;;;;;;;25.17;12.13;;;;;;;16.05;47.66;96778.44;4454195;32;20119;-83
2022/03/31 05:45:06;;;;;;;24.50;11.70;;;;;;;16.10;47.93;96778.75;4438684;32;20462;-84
2022/03/31 05:47:32;;;;;;;24.95;11.60;;;;;;;16.09;48.11;96786.91;4440070;32;20836;-84
2022/03/31 05:49:58;;;;;;;27.75;11.65;;;;;;;16.04;48.30;96781.28;4453904;32;20448;-84
2022/03/31 05:52:24;;;;;;;23.95;10.82;;;;;;;16.07;48.35;96791.53;4453903;32;20160;-83
2022/03/31 05:54:49;;;;;;;19.35;10.25;;;;;;;16.12;48.54;96779.41;4453860;32;20424;-82
2022/03/31 05:57:15;;;;;;;22.10;11.02;;;;;;;16.10;48.79;96783.25;4439936;32;20373;-83
2022/03/31 05:59:41;;;;;;;24.83;11.05;;;;;;;16.14;49.03;96781.91;4439672;32;20128;-82
2022/03/31 06:02:08;;;;;;;24.00;11.35;;;;;;;16.15;48.86;96777.41;4447464;32;201671;-82
2022/03/31 06:04:33;;;;;;;21.98;11.82;;;;;;;16.20;48.64;96785.72;4439643;32;20131;-83
2022/03/31 06:06:59;;;;;;;23.92;11.48;;;;;;;16.09;49.71;96789.56;4453999;32;20133;-84
2022/03/31 06:09:27;;;;;;;26.45;11.68;;;;;;;16.07;49.50;96786.22;4439574;32;20113;-83
2022/03/31 06:11:52;;;;;;;25.27;11.25;;;;;;;16.04;49.42;96791.91;4453876;32;20160;-84
2022/03/31 06:14:18;;;;;;;22.83;11.57;;;;;;;15.90;49.92;96796.88;4453688;32;20093;-85
2022/03/31 06:16:43;;;;;;;23.05;11.85;;;;;;;15.98;50.02;96793.38;4452976;32;20169;-82
2022/03/31 06:19:09;;;;;;;31.55;11.85;;;;;;;16.08;50.54;96790.56;4453555;32;20171;-84
2022/03/31 06:21:35;;;;;;;29.02;12.15;;;;;;;16.07;50.12;96796.84;4453023;32;20097;-81
2022/03/31 06:24:01;;;;;;;22.42;11.02;;;;;;;16.11;50.44;96796.38;4452305;32;20101;-82
2022/03/31 06:26:27;;;;;;;24.98;11.95;;;;;;;16.10;51.01;96800.00;4452974;32;20159;-81
2022/03/31 06:28:53;;;;;;;21.92;11.75;;;;;;;16.10;51.56;96800.00;4438635;32;20223;-83
2022/03/31 06:31:19;;;;;;;22.08;11.57;;;;;;;16.14;52.06;96810.31;4446683;32;20202;-85
2022/03/31 06:33:44;;;;;;;27.48;11.77;;;;;;;16.15;52.32;96804.84;4435820;32;20084;-83
2022/03/31 06:36:09;;;;;;;24.90;12.43;;;;;;;16.16;52.58;96811.78;4444735;32;20124;-84
2022/03/31 06:38:35;;;;;;;24.75;13.30;;;;;;;16.18;52.84;96807.13;4452905;32;20126;-83
2022/03/31 06:41:06;;;;;;;28.23;12.68;;;;;;;16.20;52.88;96813.13;4453413;32;20101;-84
2022/03/31 06:43:37;;;;;;;25.98;12.82;;;;;;;16.26;52.67;96819.59;4439494;32;20103;-85
2022/03/31 06:46:02;;;;;;;24.92;12.52;;;;;;;16.21;52.35;96816.63;4453622;32;20106;-84
2022/03/31 06:48:29;;;;;;;23.17;12.00;;;;;;;16.21;52.56;96820.09;4452247;32;20350;-84
2022/03/31 06:50:55;;;;;;;27.15;12.30;;;;;;;16.23;52.48;96828.72;4438743;32;20100;-85
2022/03/31 06:53:21;;;;;;;25.40;13.15;;;;;;;16.24;52.23;96818.94;4454771;32;20119;-84
2022/03/31 06:55:46;;;;;;;26.27;13.00;;;;;;;16.25;52.03;96832.06;4454510;32;20089;-85
2022/03/31 06:58:12;;;;;;;22.42;11.52;;;;;;;16.27;51.89;96832.72;4456629;32;20391;-84
2022/03/31 07:00:37;;;;;;;23.12;11.95;;;;;;;16.33;51.81;96831.22;4455881;32;20380;-84
2022/03/31 07:03:03;;;;;;;25.98;12.48;;;;;;;16.33;51.95;96833.88;4456052;32;20134;-83
2022/03/31 07:05:29;;;;;;;27.85;13.27;;;;;;;16.38;51.98;96826.25;4456681;32;20141;-84
2022/03/31 07:07:54;;;;;;;27.52;13.77;;;;;;;16.39;52.07;96819.91;4456687;32;20097;-84
2022/03/31 07:10:21;;;;;;;24.85;13.52;;;;;;;16.36;52.32;96819.41;4456642;32;20089;-84
2022/03/31 07:12:47;;;;;;;28.50;13.95;;;;;;;16.39;52.56;96816.44;4456574;32;20465;-84
2022/03/31 07:15:12;;;;;;;26.77;13.43;;;;;;;16.37;52.47;96813.94;4442391;32;20146;-83
2022/03/31 07:17:38;;;;;;;25.52;13.62;;;;;;;16.35;52.63;96817.75;4456723;32;20149;-83
2022/03/31 07:20:04;;;;;;;26.23;13.13;;;;;;;16.37;52.47;96813.09;4456373;32;20089;-84
2022/03/31 07:22:30;;;;;;;27.90;14.43;;;;;;;16.41;52.66;96811.78;4456482;32;20077;-84
2022/03/31 07:24:55;;;;;;;30.17;14.65;;;;;;;16.41;52.93;96804.62;4456477;32;20115;-83
2022/03/31 07:27:21;;;;;;;26.15;13.88;;;;;;;16.46;52.44;96806.78;4442395;32;20092;-84
2022/03/31 07:29:46;;;;;;;26.35;14.65;;;;;;;16.48;52.52;96804.78;4456632;32;20364;-83
2022/03/31 07:32:12;;;;;;;25.80;13.75;;;;;;;16.47;52.49;96803.94;4429511;32;20376;-82
2022/03/31 07:34:37;;;;;;;25.85;13.98;;;;;;;16.51;52.22;96807.09;4456532;32;20112;-83
2022/03/31 07:37:04;;;;;;;25.35;14.30;;;;;;;16.57;52.09;96802.94;4442557;32;20444;-83
2022/03/31 07:39:29;;;;;;;31.05;14.60;;;;;;;16.60;51.91;96806.06;4451187;32;20115;-83
2022/03/31 07:41:54;;;;;;;28.52;13.88;;;;;;;16.64;51.82;96804.72;4440945;32;20425;-84
2022/03/31 07:44:20;;;;;;;25.90;13.35;;;;;;;16.67;51.71;96806.25;4440827;32;20108;-83
2022/03/31 07:46:46;;;;;;;30.12;13.70;;;;;;;16.67;52.07;96807.06;4440938;32;20124;-84
2022/03/31 07:49:12;;;;;;;27.15;13.80;;;;;;;16.70;52.16;96803.22;4454254;32;20385;-84
2022/03/31 07:51:38;;;;;;;24.12;13.35;;;;;;;16.69;52.23;96807.72;4456395;32;20124;-83
2022/03/31 07:54:03;;;;;;;26.98;13.55;;;;;;;16.72;52.29;96803.88;4456399;32;20097;-84
2022/03/31 07:56:29;;;;;;;27.15;13.00;;;;;;;16.77;52.07;96798.88;4456716;32;20162;-84
2022/03/31 07:58:54;;;;;;;25.92;12.98;;;;;;;16.78;52.47;96805.03;4456146;32;20435;-84
2022/03/31 08:01:20;;;;;;;25.48;12.60;;;;;;;16.78;52.12;96797.88;4442609;32;20093;-84
2022/03/31 08:03:45;;;;;;;24.10;12.73;;;;;;;16.77;52.20;96798.06;4456489;32;20380;-83
2022/03/31 08:06:11;;;;;;;23.67;12.52;;;;;;;16.80;51.36;96806.50;4456420;32;20093;-83
2022/03/31 08:08:38;;;;;;;34.20;13.75;;;;;;;16.87;50.99;96799.53;4456037;32;20093;-84
2022/03/31 08:11:04;;;;;;;25.23;13.43;;;;;;;16.77;51.54;96800.72;4416936;32;20128;-83
2022/03/31 08:13:29;;;;;;;24.65;12.68;;;;;;;16.75;51.41;96806.22;4456272;32;20101;-84
2022/03/31 08:15:56;;;;;;;26.70;12.35;;;;;;;16.71;51.47;96805.72;4442147;32;20158;-83
2022/03/31 08:18:33;;;;;;;24.15;12.13;;;;;;;16.75;51.69;96806.22;4455718;32;20124;-83
2022/03/31 08:20:59;;;;;;;25.30;12.70;;;;;;;16.67;52.47;96800.94;4456279;32;20077;-84
2022/03/31 08:23:25;;;;;;;28.33;13.70;;;;;;;16.57;52.33;96797.59;4442129;32;20401;-83
2022/03/31 08:25:51;;;;;;;26.67;13.80;;;;;;;16.51;52.66;96797.31;4456129;32;20244;-83
2022/03/31 08:28:17;;;;;;;27.48;14.02;;;;;;;16.45;53.35;96781.19;4442119;32;20108;-84
2022/03/31 08:30:43;;;;;;;25.30;13.95;;;;;;;16.23;53.31;96772.13;4441741;32;20132;-84
2022/03/31 08:33:09;;;;;;;25.58;14.15;;;;;;;16.22;53.92;96773.94;4456012;32;20341;-85
2022/03/31 08:35:34;;;;;;;29.17;14.32;;;;;;;16.31;53.83;96774.75;4456149;32;20097;-85
2022/03/31 08:38:00;;;;;;;28.80;15.10;;;;;;;16.31;54.25;96767.59;4441870;32;20146;-85
2022/03/31 08:40:25;;;;;;;28.25;14.60;;;;;;;16.35;54.19;96759.31;4432406;32;20081;-85
2022/03/31 08:42:53;;;;;;;27.33;14.25;;;;;;;16.26;54.09;96769.09;4455938;32;20154;-84
2022/03/31 08:45:20;;;;;;;33.65;15.45;;;;;;;16.19;54.43;96766.31;4429156;32;20121;-84
2022/03/31 08:47:47;;;;;;;29.92;14.93;;;;;;;16.21;54.64;96759.00;4442175;32;20236;-85
2022/03/31 08:50:13;;;;;;;27.52;13.57;;;;;;;16.34;53.70;96758.50;4456103;32;20085;-85
2022/03/31 08:52:39;;;;;;;25.37;13.80;;;;;;;16.38;53.59;96759.81;4442232;32;20522;-84
2022/03/31 08:55:06;;;;;;;24.20;12.73;;;;;;;16.29;53.11;96760.81;4442155;32;20113;-85
2022/03/31 08:57:58;;;;;;;24.92;14.43;;;;;;;16.36;53.13;96750.31;4454467;32;20508;-84
2022/03/31 09:00:25;;;;;;;25.92;14.35;;;;;;;16.12;53.82;96754.69;4424296;32;20107;-84
2022/03/31 09:03:01;;;;;;;28.48;15.70;;;;;;;16.23;53.83;96743.72;4426200;32;20528;-83
2022/03/31 09:05:34;;;;;;;27.45;15.30;;;;;;;16.19;53.94;96747.72;4413917;32;20147;-83
2022/03/31 09:08:02;;;;;;;30.70;15.55;;;;;;;16.15;54.01;96740.22;4440435;32;20362;-82
2022/03/31 09:10:32;;;;;;;;;;;;;;;15.88;54.51;96747.59;4414178;32;20101;-82
2022/03/31 09:13:00;;;;;;;27.70;14.70;;;;;;;15.77;54.89;96734.66;4413695;32;19992;-82
2022/03/31 09:15:26;;;;;;;31.70;15.73;;;;;;;15.76;55.04;96736.50;4442608;32;20451;-83
2022/03/31 09:17:56;;;;;;;28.92;14.35;;;;;;;15.76;55.99;96732.97;4456158;32;20123;-84
2022/03/31 09:20:22;;;;;;;27.27;14.27;;;;;;;15.65;56.75;96727.00;4454818;32;20493;-84
2022/03/31 09:22:49;;;;;;;25.42;13.85;;;;;;;15.57;56.76;96736.75;4441546;32;20131;-84
2022/03/31 09:25:25;;;;;;;26.90;13.98;;;;;;;15.61;56.79;96730.16;4428981;32;20124;-82
2022/03/31 09:27:51;;;;;;;29.70;13.05;;;;;;;15.30;56.39;96726.31;4455663;32;20088;-83
2022/03/31 09:30:17;;;;;;;27.30;14.38;;;;;;;15.43;56.44;96717.03;4441729;32;20116;-83
2022/03/31 09:32:51;;;;;;;32.33;16.83;;;;;;;15.43;56.45;96719.69;4455737;32;20105;-83
2022/03/31 09:35:24;;;;;;;31.77;16.50;;;;;;;15.34;56.58;96717.03;4440446;32;20104;-84
2022/03/31 09:37:55;;;;;;;34.05;16.15;;;;;;;15.09;57.47;96718.81;4440343;32;20105;-83
2022/03/31 09:40:21;;;;;;;32.67;16.40;;;;;;;15.07;57.78;96719.97;4426407;32;20436;-83
2022/03/31 09:42:57;;;;;;;30.92;16.90;;;;;;;15.12;57.61;96721.16;4426186;32;20128;-84
2022/03/31 09:45:23;;;;;;;33.55;18.15;;;;;;;15.04;57.79;96715.00;4440188;32;20089;-84
2022/03/31 09:47:51;;;;;;;30.17;17.02;;;;;;;15.09;57.94;96710.88;4440154;32;20155;-84
2022/03/31 09:50:18;;;;;;;28.33;17.55;;;;;;;15.13;58.35;96708.72;4440223;32;20086;-84
2022/03/31 09:52:44;;;;;;;32.33;16.90;;;;;;;15.09;58.53;96705.56;4440066;32;20120;-82
2022/03/31 09:55:10;;;;;;;28.35;16.08;;;;;;;15.04;58.84;96705.22;4429136;32;20132;-83
2022/03/31 09:57:40;;;;;;;27.62;15.40;;;;;;;15.12;58.80;96705.25;4455491;32;20093;-83
2022/03/31 10:00:07;;;;;;;27.23;16.48;;;;;;;15.20;59.12;96695.63;4432883;32;20111;-83
2022/03/31 10:02:35;;;;;;;30.35;16.02;;;;;;;15.20;59.27;96692.97;4439947;32;20131;-82
2022/03/31 10:05:03;;;;;;;25.77;15.27;;;;;;;15.25;59.34;96686.19;4425873;32;20474;-83
2022/03/31 10:07:29;;;;;;;28.77;14.55;;;;;;;15.23;59.14;96682.84;4439917;32;20105;-83
2022/03/31 10:09:54;;;;;;;29.15;16.15;;;;;;;15.31;58.30;96682.03;4425878;32;20155;-83
2022/03/31 10:12:26;;;;;;;25.58;13.85;;;;;;;15.07;59.45;96675.72;4425952;32;20151;-84
2022/03/31 10:15:02;;;;;;;27.95;14.15;;;;;;;15.07;59.36;96677.56;4425888;32;20186;-83
2022/03/31 10:17:29;;;;;;;26.80;14.18;;;;;;;15.00;59.58;96682.66;4426461;32;20115;-83
2022/03/31 10:20:09;;;;;;;25.88;14.40;;;;;;;14.91;60.06;96671.22;4425841;32;20090;-83
2022/03/31 10:25:20;;;;;;;27.62;14.10;;;;;;;15.02;60.46;96675.38;4428523;32;20238;-83
2022/03/31 10:27:47;;;;;;;26.50;15.03;;;;;;;15.04;60.59;96681.34;4451404;32;20089;-82
2022/03/31 10:30:15;;;;;;;25.75;14.30;;;;;;;15.10;60.20;96674.56;4437612;32;20092;-82
2022/03/31 10:32:57;;;;;;;27.35;16.00;;;;;;;15.11;60.04;96670.94;4455419;32;20120;-83
2022/03/31 10:35:24;;;;;;;30.60;15.95;;;;;;;15.02;60.86;96670.06;4440527;32;20132;-83
2022/03/31 10:37:49;;;;;;;27.05;15.65;;;;;;;15.11;60.14;96668.28;4454599;32;20153;-82
2022/03/31 10:40:28;;;;;;;26.12;14.65;;;;;;;14.99;60.46;96665.13;4452433;32;20097;-82
2022/03/31 10:42:55;;;;;;;28.52;15.20;;;;;;;15.04;60.60;96657.47;4442074;32;20147;-82
2022/03/31 10:45:20;;;;;;;25.80;14.90;;;;;;;15.07;60.55;96661.66;4438267;32;20096;-83
2022/03/31 10:47:45;;;;;;;27.55;16.23;;;;;;;15.06;60.77;96667.94;4456116;32;20503;-82
2022/03/31 10:50:23;;;;;;;28.75;15.43;;;;;;;14.85;61.07;96660.44;4456207;32;20142;-82
2022/03/31 10:53:01;;;;;;;28.73;15.67;;;;;;;14.97;61.11;96658.28;4456382;32;20145;-83
2022/03/31 10:55:55;;;;;;;26.45;14.52;;;;;;;15.01;61.86;96654.31;4426237;32;20105;-82
2022/03/31 10:58:27;;;;;;;24.73;14.13;;;;;;;15.14;61.51;96646.72;4453996;32;20111;-82
2022/03/31 11:00:54;;;;;;;29.77;15.02;;;;;;;15.22;61.42;96640.56;4446572;32;20090;-83
2022/03/31 11:03:19;;;;;;;22.98;14.15;;;;;;;15.26;61.33;96633.94;4447649;32;20188;-83
2022/03/31 11:05:47;;;;;;;29.75;14.90;;;;;;;15.44;60.11;96634.63;4455551;32;20397;-82
2022/03/31 11:08:22;;;;;;;27.25;15.27;;;;;;;15.42;60.54;96633.13;4447920;32;20113;-83
2022/03/31 11:10:52;;;;;;;29.90;14.35;;;;;;;15.41;60.96;96632.28;4446268;32;20107;-83
2022/03/31 11:13:20;;;;;;;24.65;14.65;;;;;;;15.42;60.52;96620.69;4455726;32;20252;-82
2022/03/31 11:15:54;;;;;;;25.98;14.60;;;;;;;15.49;60.87;96618.19;4451126;32;20485;-83
2022/03/31 11:18:21;;;;;;;28.87;15.32;;;;;;;15.57;60.88;96617.34;4446152;32;20121;-83
2022/03/31 11:21:10;;;;;;;28.77;14.65;;;;;;;15.62;60.84;96617.69;4451174;32;20452;-83
2022/03/31 11:23:45;;;;;;;29.50;14.40;;;;;;;15.57;60.25;96607.56;4446938;32;20503;-83